createdAt,value
2019-05-02T00:01:26.474Z,96.40
2019-05-02T00:03:52.922Z,96.30
2019-05-02T00:06:19.735Z,96.30
2019-05-02T00:08:46.221Z,96.30
2019-05-02T00:11:12.585Z,96.60
2019-05-02T00:13:38.727Z,96.70
2019-05-02T00:16:09.126Z,96.60
2019-05-02T00:18:37.322Z,96.70
2019-05-02T00:21:03.153Z,96.80
2019-05-02T00:23:29.562Z,97.00
2019-05-02T00:25:55.828Z,97.10
2019-05-02T00:28:22.260Z,97.10
2019-05-02T00:30:48.620Z,97.50
2019-05-02T00:33:14.774Z,97.60
2019-05-02T00:35:45.903Z,97.50
2019-05-02T00:38:09.331Z,97.40
2019-05-02T00:40:35.659Z,97.50
2019-05-02T00:43:01.805Z,97.50
2019-05-02T00:45:27.966Z,97.50
2019-05-02T00:48:12.790Z,97.50
2019-05-02T00:50:40.733Z,97.50
2019-05-02T00:53:12.132Z,97.50
2019-05-02T00:55:36.174Z,97.50
2019-05-02T00:58:02.816Z,97.60
2019-05-02T01:00:30.886Z,97.20
2019-05-02T01:02:58.930Z,97.30
2019-05-02T01:05:25.094Z,97.20
2019-05-02T01:07:51.240Z,97.10
2019-05-02T01:10:21.338Z,97.10
2019-05-02T01:12:46.250Z,97.00
2019-05-02T01:15:13.071Z,97.00
2019-05-02T01:17:39.495Z,97.10
2019-05-02T01:20:06.243Z,97.00
2019-05-02T01:22:32.402Z,97.20
2019-05-02T01:24:58.558Z,97.20
2019-05-02T01:27:43.557Z,97.30
2019-05-02T01:30:28.475Z,97.40
2019-05-02T01:33:06.582Z,97.30
2019-05-02T01:35:47.688Z,97.60
2019-05-02T01:38:19.819Z,97.60
2019-05-02T01:40:53.001Z,97.80
2019-05-02T01:43:23.983Z,97.60
2019-05-02T01:45:50.480Z,97.80
2019-05-02T01:48:16.889Z,97.60
2019-05-02T01:50:43.031Z,97.60
2019-05-02T01:53:09.187Z,97.50
2019-05-02T01:55:35.417Z,97.60
2019-05-02T01:58:01.591Z,97.40
2019-05-02T02:00:27.738Z,97.40
2019-05-02T02:02:53.899Z,97.60
2019-05-02T02:05:20.187Z,97.60
2019-05-02T02:07:50.776Z,97.70
2019-05-02T02:10:19.511Z,97.90
2019-05-02T02:12:56.494Z,98.10
2019-05-02T02:15:11.976Z,98.40
2019-05-02T02:17:38.135Z,98.20
2019-05-02T02:20:09.800Z,98.40
2019-05-02T02:22:54.005Z,98.40
2019-05-02T02:25:32.203Z,98.40
2019-05-02T02:27:59.589Z,98.10
2019-05-02T02:30:26.624Z,98.10
2019-05-02T02:32:53.100Z,98.20
2019-05-02T02:35:19.737Z,98.50
2019-05-02T02:37:53.061Z,98.60
2019-05-02T02:40:14.884Z,98.50
2019-05-02T02:42:41.244Z,98.70
2019-05-02T02:45:20.459Z,98.60
2019-05-02T02:47:53.069Z,98.50
2019-05-02T02:50:15.045Z,98.60
2019-05-02T02:52:44.772Z,98.60
2019-05-02T02:55:10.467Z,98.80
2019-05-02T02:57:36.638Z,98.50
2019-05-02T03:00:10.594Z,98.50
2019-05-02T03:02:34.058Z,98.60
2019-05-02T03:05:00.623Z,98.60
2019-05-02T03:07:28.849Z,98.60
2019-05-02T03:09:59.651Z,98.60
2019-05-02T03:12:26.038Z,98.70
2019-05-02T03:14:54.107Z,98.60
2019-05-02T03:17:25.769Z,98.60
2019-05-02T03:19:48.592Z,98.70
2019-05-02T03:22:14.736Z,98.70
2019-05-02T03:24:43.877Z,98.60
2019-05-02T03:27:09.217Z,99.10
2019-05-02T03:29:41.135Z,98.80
2019-05-02T03:32:14.494Z,99.00
2019-05-02T03:34:47.284Z,99.40
2019-05-02T03:37:03.127Z,99.40
2019-05-02T03:39:28.968Z,99.30
2019-05-02T03:42:02.965Z,99.20
2019-05-02T03:44:26.215Z,99.10
2019-05-02T03:46:54.344Z,99.00
2019-05-02T03:49:20.243Z,99.00
2019-05-02T03:51:46.388Z,99.00
2019-05-02T03:54:12.564Z,99.10
2019-05-02T03:56:44.472Z,99.10
2019-05-02T03:59:07.140Z,99.30
2019-05-02T04:01:34.596Z,99.30
2019-05-02T04:04:01.746Z,99.20
2019-05-02T04:06:28.396Z,99.30
2019-05-02T04:09:00.383Z,99.30
2019-05-02T04:11:24.007Z,99.00
2019-05-02T04:13:51.248Z,99.60
2019-05-02T04:16:17.816Z,99.20
2019-05-02T04:18:54.600Z,99.90
2019-05-02T04:21:12.935Z,99.60
2019-05-02T04:23:39.287Z,99.60
2019-05-02T04:26:06.707Z,98.80
2019-05-02T04:28:33.700Z,99.00
2019-05-02T04:31:00.051Z,99.00
2019-05-02T04:33:29.180Z,99.50
2019-05-02T04:35:54.279Z,99.50
2019-05-02T04:38:30.996Z,99.30
2019-05-02T04:40:49.601Z,99.20
2019-05-02T04:43:18.356Z,99.10
2019-05-02T04:45:55.313Z,99.20
2019-05-02T04:48:12.090Z,99.20
2019-05-02T04:50:38.284Z,99.30
2019-05-02T04:53:04.527Z,98.50
2019-05-02T04:55:33.402Z,98.80
2019-05-02T04:58:01.663Z,98.70
2019-05-02T05:00:28.629Z,98.70
2019-05-02T05:02:57.889Z,98.70
2019-05-02T05:05:25.835Z,98.80
2019-05-02T05:07:51.532Z,98.40
2019-05-02T05:10:18.562Z,98.60
2019-05-02T05:12:45.233Z,98.20
2019-05-02T05:15:15.269Z,98.30
2019-05-02T05:17:39.742Z,98.00
2019-05-02T05:20:13.668Z,98.30
2019-05-02T05:22:36.477Z,98.40
2019-05-02T05:25:16.789Z,98.00
2019-05-02T05:27:40.488Z,98.00
2019-05-02T05:30:14.584Z,98.20
2019-05-02T05:32:35.163Z,97.90
2019-05-02T05:35:03.527Z,97.60
2019-05-02T05:37:30.896Z,97.10
2019-05-02T05:39:58.039Z,97.10
2019-05-02T05:42:30.205Z,97.50
2019-05-02T05:44:52.379Z,96.90
2019-05-02T05:47:21.329Z,96.80
2019-05-02T05:49:47.747Z,96.80
2019-05-02T05:52:14.053Z,96.60
2019-05-02T05:54:42.032Z,96.00
2019-05-02T05:57:12.230Z,95.80
2019-05-02T05:59:38.204Z,95.90
2019-05-02T06:02:05.416Z,95.40
2019-05-02T06:04:33.445Z,94.70
2019-05-02T06:07:03.184Z,94.20
2019-05-02T06:09:31.191Z,94.10
2019-05-02T06:11:56.671Z,93.40
2019-05-02T06:14:24.952Z,93.30
2019-05-02T06:16:51.662Z,92.70
2019-05-02T06:19:19.240Z,92.00
2019-05-02T06:21:46.721Z,92.20
2019-05-02T06:24:15.770Z,91.90
2019-05-02T06:26:44.645Z,92.00
2019-05-02T06:29:13.067Z,91.80
2019-05-02T06:31:42.595Z,92.00
2019-05-02T06:34:07.024Z,91.10
2019-05-02T06:36:36.884Z,90.70
2019-05-02T06:39:01.520Z,90.50
2019-05-02T06:41:29.581Z,90.00
2019-05-02T06:43:55.751Z,90.00
2019-05-02T06:46:27.835Z,90.20
2019-05-02T06:48:52.231Z,89.50
2019-05-02T06:51:20.868Z,91.20
2019-05-02T06:53:46.959Z,91.00
2019-05-02T06:56:14.151Z,90.50
2019-05-02T06:58:42.010Z,90.80
2019-05-02T07:01:08.411Z,90.10
2019-05-02T07:03:34.908Z,88.80
2019-05-02T07:06:02.812Z,88.60
2019-05-02T07:08:29.446Z,90.50
2019-05-02T07:11:00.654Z,90.20
2019-05-02T07:13:23.775Z,90.90
2019-05-02T07:15:51.907Z,90.90
2019-05-02T07:18:20.226Z,91.20
2019-05-02T07:20:46.384Z,91.10
2019-05-02T07:23:16.053Z,91.50
2019-05-02T07:25:44.046Z,91.20
2019-05-02T07:28:09.507Z,90.80
2019-05-02T07:30:37.576Z,90.00
2019-05-02T07:33:03.976Z,90.10
2019-05-02T07:35:30.387Z,89.90
2019-05-02T07:37:56.551Z,90.10
2019-05-02T07:40:22.935Z,90.30
2019-05-02T07:42:49.200Z,90.00
2019-05-02T07:45:15.669Z,90.10
2019-05-02T07:47:42.473Z,90.20
2019-05-02T07:50:11.814Z,91.00
2019-05-02T07:52:40.894Z,90.80
2019-05-02T07:55:09.826Z,91.00
2019-05-02T07:57:34.448Z,90.70
2019-05-02T08:00:05.012Z,90.30
2019-05-02T08:02:31.797Z,90.50
2019-05-02T08:04:57.947Z,90.60
2019-05-02T08:07:27.146Z,90.30
2019-05-02T08:09:52.160Z,90.30
2019-05-02T08:12:18.534Z,89.70
2019-05-02T08:14:44.691Z,89.30
2019-05-02T08:17:16.887Z,88.20
2019-05-02T08:19:41.691Z,88.80
2019-05-02T08:22:13.316Z,88.40
2019-05-02T08:24:37.985Z,87.70
2019-05-02T08:27:05.079Z,87.30
2019-05-02T08:29:31.239Z,86.50
2019-05-02T08:31:57.681Z,87.30
2019-05-02T08:34:32.713Z,87.50
2019-05-02T08:37:03.087Z,87.30
2019-05-02T08:39:33.075Z,87.90
2019-05-02T08:41:57.899Z,86.20
2019-05-02T08:44:24.366Z,85.80
2019-05-02T08:46:51.531Z,84.50
2019-05-02T08:49:19.983Z,84.80
2019-05-02T08:51:46.408Z,83.40
2019-05-02T08:54:12.636Z,81.30
2019-05-02T08:56:38.888Z,82.00
2019-05-02T08:59:05.283Z,81.10
2019-05-02T09:01:35.239Z,81.90
2019-05-02T09:04:00.359Z,81.00
2019-05-02T09:06:26.775Z,81.70
2019-05-02T09:08:53.003Z,80.90
2019-05-02T09:11:19.215Z,79.70
2019-05-02T09:13:46.063Z,78.60
2019-05-02T09:16:12.727Z,77.60
2019-05-02T09:18:46.567Z,75.70
2019-05-02T09:21:07.367Z,75.00
2019-05-02T09:23:37.070Z,75.60
2019-05-02T09:26:02.583Z,76.80
2019-05-02T09:28:29.188Z,74.90
2019-05-02T09:30:57.504Z,72.40
2019-05-02T09:33:23.467Z,73.70
2019-05-02T09:35:51.601Z,73.70
2019-05-02T09:38:18.031Z,72.40
2019-05-02T09:40:47.128Z,72.30
2019-05-02T09:43:12.381Z,73.20
2019-05-02T09:45:41.098Z,72.50
2019-05-02T09:48:08.085Z,71.80
2019-05-02T09:50:36.614Z,71.50
2019-05-02T09:53:02.933Z,73.00
2019-05-02T09:55:29.100Z,72.00
2019-05-02T09:57:55.257Z,71.10
2019-05-02T10:00:36.300Z,71.70
2019-05-02T10:03:02.747Z,74.70
2019-05-02T10:05:29.160Z,73.90
2019-05-02T10:07:57.375Z,73.90
2019-05-02T10:10:24.171Z,73.70
2019-05-02T10:12:52.113Z,72.50
2019-05-02T10:15:18.385Z,72.50
2019-05-02T10:17:46.767Z,73.60
2019-05-02T10:20:13.215Z,72.30
2019-05-02T10:22:41.403Z,71.40
2019-05-02T10:25:08.829Z,70.30
2019-05-02T10:27:38.468Z,72.30
2019-05-02T10:30:11.837Z,72.10
2019-05-02T10:32:35.774Z,71.00
2019-05-02T10:35:06.976Z,69.60
2019-05-02T10:37:38.305Z,68.20
2019-05-02T10:40:03.075Z,71.00
2019-05-02T10:42:29.545Z,72.00
2019-05-02T10:44:55.718Z,70.90
2019-05-02T10:47:22.223Z,71.40
2019-05-02T10:49:53.406Z,69.60
2019-05-02T10:52:21.613Z,70.90
2019-05-02T10:54:49.360Z,70.00
2019-05-02T10:57:15.537Z,71.30
2019-05-02T10:59:42.152Z,70.60
2019-05-02T11:02:25.029Z,70.70
2019-05-02T11:04:53.196Z,70.00
2019-05-02T11:07:22.685Z,72.80
2019-05-02T11:09:47.447Z,70.30
2019-05-02T11:12:16.444Z,71.70
2019-05-02T11:14:46.020Z,72.10
2019-05-02T11:17:17.681Z,71.20
2019-05-02T11:19:47.994Z,71.60
2019-05-02T11:22:14.188Z,69.10
2019-05-02T11:24:41.819Z,68.00
2019-05-02T11:27:08.317Z,67.70
2019-05-02T11:29:34.670Z,68.10
2019-05-02T11:32:02.632Z,67.40
2019-05-02T11:34:29.147Z,66.60
2019-05-02T11:36:55.299Z,66.60
2019-05-02T11:39:31.549Z,64.50
2019-05-02T11:41:49.807Z,66.20
2019-05-02T11:44:15.964Z,65.00
2019-05-02T11:46:46.782Z,65.10
2019-05-02T11:49:12.086Z,65.50
2019-05-02T11:51:38.248Z,65.50
2019-05-02T11:54:09.191Z,66.70
2019-05-02T11:56:33.088Z,66.30
2019-05-02T11:58:59.363Z,65.20
2019-05-02T12:01:35.570Z,66.10
2019-05-02T12:03:54.321Z,65.30
2019-05-02T12:06:22.326Z,66.10
2019-05-02T12:08:49.434Z,66.00
2019-05-02T12:11:17.697Z,65.50
2019-05-02T12:13:47.347Z,66.40
2019-05-02T12:16:13.483Z,66.10
2019-05-02T12:18:41.807Z,66.10
2019-05-02T12:21:07.938Z,66.80
2019-05-02T12:23:36.162Z,64.60
2019-05-02T12:26:02.976Z,63.60
2019-05-02T12:28:29.418Z,63.20
2019-05-02T12:30:55.563Z,63.90
2019-05-02T12:33:23.932Z,63.20
2019-05-02T12:35:52.402Z,64.40
2019-05-02T12:38:18.611Z,62.90
2019-05-02T12:40:45.061Z,63.70
2019-05-02T12:43:11.988Z,63.40
2019-05-02T12:45:38.491Z,63.40
2019-05-02T12:48:04.647Z,61.70
2019-05-02T12:50:32.197Z,61.80
2019-05-02T12:52:58.570Z,61.20
2019-05-02T12:55:24.995Z,61.00
2019-05-02T12:57:52.324Z,59.70
2019-05-02T13:00:19.235Z,58.70
2019-05-02T13:02:50.164Z,59.90
2019-05-02T13:05:18.572Z,60.80
2019-05-02T13:07:50.498Z,62.10
2019-05-02T13:10:15.343Z,61.60
2019-05-02T13:12:43.423Z,61.20
2019-05-02T13:15:10.076Z,62.00
2019-05-02T13:17:47.163Z,62.70
2019-05-02T13:20:07.809Z,61.80
2019-05-02T13:22:36.038Z,62.40
2019-05-02T13:25:06.038Z,62.60
2019-05-02T13:27:43.341Z,66.20
2019-05-02T13:30:03.196Z,68.90
2019-05-02T13:32:37.515Z,72.00
2019-05-02T13:35:08.921Z,81.20
2019-05-02T13:37:35.591Z,84.10
2019-05-02T13:40:11.961Z,87.10
2019-05-02T13:42:38.695Z,88.10
2019-05-02T13:45:16.607Z,89.60
2019-05-02T13:47:42.862Z,90.50
2019-05-02T13:50:09.629Z,90.50
2019-05-02T13:52:35.779Z,90.40
2019-05-02T13:55:05.756Z,90.70
2019-05-02T13:57:35.034Z,92.30
2019-05-02T14:00:02.140Z,93.00
2019-05-02T14:02:36.362Z,92.70
2019-05-02T14:05:08.863Z,92.10
2019-05-02T14:07:35.327Z,93.10
2019-05-02T14:10:05.989Z,92.90
2019-05-02T14:12:43.639Z,93.00
2019-05-02T14:15:11.710Z,93.70
2019-05-02T14:17:38.171Z,94.30
2019-05-02T14:20:10.408Z,93.10
2019-05-02T14:22:33.019Z,93.50
2019-05-02T14:24:59.275Z,93.10
2019-05-02T14:27:25.434Z,93.10
2019-05-02T14:29:52.518Z,93.20
2019-05-02T14:32:23.728Z,92.90
2019-05-02T14:34:50.012Z,92.70
2019-05-02T14:37:16.155Z,93.70
2019-05-02T14:39:43.625Z,92.40
2019-05-02T14:42:21.042Z,92.00
2019-05-02T14:45:04.437Z,91.80
2019-05-02T14:47:10.023Z,91.90
2019-05-02T14:49:37.987Z,91.30
2019-05-02T14:52:06.965Z,89.60
2019-05-02T14:54:32.683Z,90.50
2019-05-02T14:57:17.210Z,89.20
2019-05-02T14:59:42.729Z,87.20
2019-05-02T15:02:13.070Z,87.10
2019-05-02T15:04:44.687Z,87.00
2019-05-02T15:07:08.526Z,86.80
2019-05-02T15:09:36.359Z,86.70
2019-05-02T15:12:08.256Z,85.90
2019-05-02T15:14:33.111Z,86.20
2019-05-02T15:16:59.673Z,85.80
2019-05-02T15:19:25.835Z,85.80
2019-05-02T15:21:55.984Z,85.90
2019-05-02T15:24:22.957Z,87.20
2019-05-02T15:26:49.684Z,86.20
2019-05-02T15:29:19.708Z,91.00
2019-05-02T15:31:48.587Z,95.00
2019-05-02T15:34:19.168Z,96.30
2019-05-02T15:36:45.949Z,98.50
2019-05-02T15:41:44.705Z,98.70
2019-05-02T15:44:09.584Z,99.00
2019-05-02T15:46:35.723Z,98.60
2019-05-02T15:49:05.718Z,98.30
2019-05-02T15:51:30.591Z,98.00
2019-05-02T15:54:06.119Z,97.60
2019-05-02T15:56:26.728Z,97.40
2019-05-02T15:58:52.898Z,97.30
2019-05-02T16:01:24.039Z,97.50
2019-05-02T16:04:01.706Z,97.90
2019-05-02T16:06:31.704Z,98.00
2019-05-02T16:08:56.223Z,98.00
2019-05-02T16:11:22.988Z,98.30
2019-05-02T16:13:52.375Z,98.90
2019-05-02T16:16:21.935Z,98.90
2019-05-02T16:18:48.319Z,99.00
2019-05-02T16:21:30.078Z,99.20
2019-05-02T16:24:14.954Z,99.50
2019-05-02T16:26:42.745Z,99.60
2019-05-02T16:29:11.062Z,99.10
2019-05-02T16:31:39.724Z,98.80
2019-05-02T16:34:05.895Z,99.00
2019-05-02T16:36:37.298Z,99.00
2019-05-02T16:39:00.207Z,98.60
2019-05-02T16:41:26.464Z,99.20
2019-05-02T16:43:54.292Z,99.50
2019-05-02T16:46:21.665Z,99.30
2019-05-02T16:48:48.023Z,98.80
2019-05-02T16:51:30.296Z,99.20
2019-05-02T16:53:43.227Z,98.50
2019-05-02T16:56:11.467Z,98.40
2019-05-02T16:58:38.010Z,98.60
2019-05-02T17:01:05.830Z,98.70
2019-05-02T17:03:31.976Z,99.00
2019-05-02T17:05:58.723Z,98.90
2019-05-02T17:08:41.886Z,98.90
2019-05-02T17:11:20.653Z,98.50
2019-05-02T17:13:46.829Z,99.00
2019-05-02T17:16:16.996Z,99.00
2019-05-02T17:18:43.135Z,99.50
2019-05-02T17:21:09.096Z,98.70
2019-05-02T17:23:37.362Z,99.20
2019-05-02T17:26:04.132Z,99.10
2019-05-02T17:28:31.769Z,98.50
2019-05-02T17:30:58.147Z,98.60
2019-05-02T17:33:24.293Z,99.00
2019-05-02T17:35:52.258Z,98.80
2019-05-02T17:38:23.560Z,99.10
2019-05-02T17:40:47.275Z,98.60
2019-05-02T17:43:13.430Z,98.60
2019-05-02T17:45:40.285Z,98.30
2019-05-02T17:48:08.454Z,99.20
2019-05-02T17:50:49.491Z,99.50
2019-05-02T17:53:13.669Z,99.40
2019-05-02T17:55:40.838Z,99.40
2019-05-02T17:58:12.490Z,99.40
2019-05-02T18:00:37.867Z,99.70
2019-05-02T18:03:04.279Z,99.70
2019-05-02T18:05:32.045Z,99.80
2019-05-02T18:07:58.810Z,99.40
2019-05-02T18:10:25.174Z,99.20
2019-05-02T18:12:56.758Z,99.50
2019-05-02T18:15:20.101Z,99.10
2019-05-02T18:17:46.271Z,98.90
2019-05-02T18:20:12.829Z,99.50
2019-05-02T18:22:39.985Z,99.70
2019-05-02T18:25:07.964Z,99.60
2019-05-02T18:27:34.383Z,99.00
2019-05-02T18:30:02.247Z,99.40
2019-05-02T18:32:30.499Z,99.20
2019-05-02T18:35:01.214Z,99.90
2019-05-02T18:37:24.688Z,99.40
2019-05-02T18:39:55.741Z,99.10
2019-05-02T18:42:22.072Z,99.60
2019-05-02T18:44:48.266Z,99.60
2019-05-02T18:47:20.097Z,99.50
2019-05-02T18:49:43.389Z,99.90
2019-05-02T18:52:11.665Z,99.70
2019-05-02T18:54:38.578Z,99.90
2019-05-02T18:57:05.975Z,99.20
2019-05-02T18:59:32.234Z,99.90
2019-05-02T19:01:59.791Z,99.60
2019-05-02T19:04:34.901Z,99.90
2019-05-02T19:06:54.339Z,99.50
2019-05-02T19:09:24.952Z,99.80
2019-05-02T19:11:48.643Z,99.90
2019-05-02T19:14:16.697Z,99.90
2019-05-02T19:16:42.848Z,99.70
2019-05-02T19:19:09.128Z,99.80
2019-05-02T19:21:39.350Z,99.90
2019-05-02T19:24:04.467Z,99.90
2019-05-02T19:26:32.449Z,99.80
2019-05-02T19:29:14.101Z,99.90
2019-05-02T19:31:44.337Z,99.70
2019-05-02T19:34:07.972Z,99.20
2019-05-02T19:36:34.427Z,99.60
2019-05-02T19:39:07.915Z,99.90
2019-05-02T19:41:32.008Z,99.60
2019-05-02T19:43:58.263Z,99.00
2019-05-02T19:46:31.664Z,97.60
2019-05-02T19:48:52.474Z,97.50
2019-05-02T19:51:20.305Z,97.10
2019-05-02T19:53:53.498Z,97.20
2019-05-02T19:56:15.758Z,96.70
2019-05-02T19:58:46.449Z,97.20
2019-05-02T20:01:10.272Z,97.50
2019-05-02T20:03:36.407Z,97.40
2019-05-02T20:06:06.127Z,97.50
2019-05-02T20:08:32.624Z,97.50
2019-05-02T20:10:59.244Z,97.60
2019-05-02T20:13:28.099Z,98.20
2019-05-02T20:15:57.071Z,98.20
2019-05-02T20:18:23.779Z,98.30
2019-05-02T20:21:12.236Z,97.90
2019-05-02T20:23:36.579Z,98.30
2019-05-02T20:26:03.752Z,97.70
2019-05-02T20:28:31.768Z,97.70
2019-05-02T20:30:58.089Z,97.60
2019-05-02T20:33:24.240Z,96.90
2019-05-02T20:35:50.420Z,96.70
2019-05-02T20:38:16.559Z,96.80
2019-05-02T20:40:42.976Z,96.50
2019-05-02T20:43:09.354Z,96.80
2019-05-02T20:45:35.875Z,96.90
2019-05-02T20:48:02.274Z,96.80
2019-05-02T20:50:31.684Z,97.20
2019-05-02T20:52:57.823Z,96.60
2019-05-02T20:55:24.244Z,96.50
2019-05-02T20:57:52.631Z,96.50
2019-05-02T21:00:29.722Z,96.70
2019-05-02T21:02:55.964Z,97.10
2019-05-02T21:05:27.173Z,97.90
2019-05-02T21:08:12.372Z,97.80
2019-05-02T21:10:43.256Z,97.80
2019-05-02T21:13:09.440Z,98.00
2019-05-02T21:15:35.995Z,98.80
2019-05-02T21:18:02.524Z,99.20
2019-05-02T21:20:28.932Z,99.20
2019-05-02T21:22:55.188Z,99.20
2019-05-02T21:25:23.169Z,99.20
2019-05-02T21:27:49.539Z,99.20
2019-05-02T21:30:24.503Z,99.20
2019-05-02T21:32:52.048Z,99.10
2019-05-02T21:35:18.420Z,98.80
2019-05-02T21:37:44.803Z,98.80
2019-05-02T21:40:11.839Z,98.60
2019-05-02T21:42:38.135Z,98.90
2019-05-02T21:45:04.606Z,98.70
2019-05-02T21:47:31.855Z,98.40
2019-05-02T21:50:03.216Z,98.50
2019-05-02T21:52:37.030Z,98.90
2019-05-02T21:55:10.081Z,98.50
2019-05-02T21:57:36.224Z,98.40
2019-05-02T22:00:07.507Z,98.60
2019-05-02T22:02:35.855Z,98.30
2019-05-02T22:05:04.532Z,98.60
2019-05-02T22:07:32.313Z,98.60
2019-05-02T22:09:58.772Z,98.40
2019-05-02T22:12:25.932Z,98.90
2019-05-02T22:14:52.838Z,98.50
2019-05-02T22:17:19.154Z,98.40
2019-05-02T22:19:45.307Z,98.50
2019-05-02T22:22:13.180Z,98.30
2019-05-02T22:24:39.356Z,98.60
2019-05-02T22:27:05.839Z,98.60
2019-05-02T22:29:32.474Z,99.10
2019-05-02T22:31:58.741Z,98.60
2019-05-02T22:34:24.901Z,98.50
2019-05-02T22:36:53.782Z,98.50
2019-05-02T22:39:32.973Z,98.90
2019-05-02T22:41:59.146Z,98.90
2019-05-02T22:44:25.595Z,99.30
2019-05-02T22:46:52.216Z,99.30
2019-05-02T22:49:18.394Z,99.40
2019-05-02T22:51:44.551Z,99.90
2019-05-02T22:54:24.270Z,99.30
2019-05-02T22:56:40.072Z,99.40
2019-05-02T22:59:06.316Z,99.80
2019-05-02T23:01:32.771Z,99.90
2019-05-02T23:03:59.019Z,99.90
2019-05-02T23:06:25.381Z,99.90
2019-05-02T23:08:52.437Z,99.90
2019-05-02T23:11:18.810Z,99.90
2019-05-02T23:13:44.962Z,99.90
2019-05-02T23:16:11.125Z,99.90
2019-05-02T23:18:37.278Z,99.90
2019-05-02T23:21:03.560Z,99.90
2019-05-02T23:23:29.713Z,99.90
2019-05-02T23:26:00.847Z,99.90
2019-05-02T23:28:31.792Z,99.90
2019-05-02T23:30:58.072Z,99.90
2019-05-02T23:33:26.137Z,99.90
2019-05-02T23:35:52.309Z,99.90
2019-05-02T23:38:18.470Z,99.90
2019-05-02T23:40:44.622Z,99.90
2019-05-02T23:43:12.461Z,99.90
2019-05-02T23:45:38.838Z,99.90
2019-05-02T23:48:05.186Z,99.90
2019-05-02T23:50:31.443Z,99.90
2019-05-02T23:52:57.602Z,99.90
2019-05-02T23:55:23.844Z,99.90
2019-05-02T23:57:50.004Z,99.90
